Time;durP1;ratioP1;P1;durP2;ratioP2;P2;SDS_P1;SDS_P2;PMS_P1;PMS_P2;Temp;Humidity;BMP_temperature;BMP_pressure;BME280_temperature;BME280_humidity;BME280_pressure;Samples;Min_cycle;Max_cycle;Signal;HPM_P1;HPM_P2
2022/05/08 00:00:04;;;;;;;3.70;2.97;;;;;;;;;;5036619;28;20193;-65
2022/05/08 00:02:30;;;;;;;4.03;2.63;;;;;;;;;;5054324;28;20714;-65
2022/05/08 00:04:56;;;;;;;6.63;2.57;;;;;;;;;;5054212;28;20206;-65
2022/05/08 00:07:23;;;;;;;3.90;2.60;;;;;;;;;;5036079;28;20190;-65
2022/05/08 00:09:50;;;;;;;4.57;2.60;;;;;;;;;;5036191;28;20182;-65
2022/05/08 00:12:17;;;;;;;4.47;2.47;;;;;;;;;;5036015;28;20567;-65
2022/05/08 00:14:43;;;;;;;3.17;2.80;;;;;;;;;;5054359;28;20264;-65
2022/05/08 00:17:13;;;;;;;5.87;2.90;;;;;;;;;;5035697;28;20280;-65
2022/05/08 00:19:40;;;;;;;4.63;3.13;;;;;;;;;;5053737;28;20178;-66
2022/05/08 00:22:06;;;;;;;3.50;2.63;;;;;;;;;;5035608;28;20182;-65
2022/05/08 00:24:32;;;;;;;5.20;3.23;;;;;;;;;;5035854;28;20186;-65
2022/05/08 00:26:58;;;;;;;4.13;3.20;;;;;;;;;;5054631;28;20206;-66
2022/05/08 00:29:24;;;;;;;8.67;3.53;;;;;;;;;;5059354;28;20182;-65
2022/05/08 00:31:50;;;;;;;5.00;2.80;;;;;;;;;;5066207;28;20315;-65
2022/05/08 00:34:16;;;;;;;6.00;3.20;;;;;;;;;;5068583;28;20198;-65
2022/05/08 00:36:42;;;;;;;5.70;3.47;;;;;;;;;;5053135;28;20208;-66
2022/05/08 00:39:08;;;;;;;2.87;2.63;;;;;;;;;;5069653;28;20174;-65
2022/05/08 00:41:35;;;;;;;5.37;3.60;;;;;;;;;;5049884;28;20204;-65
2022/05/08 00:44:01;;;;;;;4.63;3.37;;;;;;;;;;5040794;28;20253;-66
2022/05/08 00:46:28;;;;;;;4.00;3.30;;;;;;;;;;5058742;28;20314;-66
2022/05/08 00:48:54;;;;;;;4.77;3.43;;;;;;;;;;5042027;28;20187;-65
2022/05/08 00:51:20;;;;;;;4.93;3.77;;;;;;;;;;5058656;28;20183;-65
2022/05/08 00:53:50;;;;;;;5.47;3.97;;;;;;;;;;5056849;28;20204;-65
2022/05/08 00:56:17;;;;;;;5.73;3.67;;;;;;;;;;5056945;28;20222;-65
2022/05/08 00:58:44;;;;;;;7.30;3.93;;;;;;;;;;5056632;28;20205;-64
2022/05/08 01:01:10;;;;;;;4.90;3.50;;;;;;;;;;5057112;28;20175;-64
2022/05/08 01:03:36;;;;;;;5.67;3.50;;;;;;;;;;5056882;28;20189;-65
2022/05/08 01:06:07;;;;;;;3.93;3.40;;;;;;;;;;5038683;28;20202;-65
2022/05/08 01:08:35;;;;;;;5.07;4.13;;;;;;;;;;5038745;28;20186;-65
2022/05/08 01:11:02;;;;;;;6.57;3.80;;;;;;;;;;5038708;28;20186;-65
2022/05/08 01:13:27;;;;;;;5.87;4.27;;;;;;;;;;5056475;28;20277;-65
2022/05/08 01:15:55;;;;;;;6.73;4.17;;;;;;;;;;5039311;28;20272;-65
2022/05/08 01:18:21;;;;;;;6.83;4.90;;;;;;;;;;5058177;28;20178;-65
2022/05/08 01:20:47;;;;;;;7.90;5.00;;;;;;;;;;5039859;28;20181;-66
2022/05/08 01:23:15;;;;;;;7.70;5.10;;;;;;;;;;5039450;28;20288;-67
2022/05/08 01:25:45;;;;;;;6.27;4.67;;;;;;;;;;5039932;28;20214;-65
2022/05/08 01:28:12;;;;;;;6.10;4.67;;;;;;;;;;5040120;28;20178;-65
2022/05/08 01:30:42;;;;;;;7.67;5.27;;;;;;;;;;5058336;28;20202;-65
2022/05/08 01:33:08;;;;;;;6.13;4.77;;;;;;;;;;5039866;28;20670;-65
2022/05/08 01:35:35;;;;;;;8.77;4.87;;;;;;;;;;5040181;28;20199;-65
2022/05/08 01:38:01;;;;;;;9.23;4.63;;;;;;;;;;5039719;28;20179;-65
2022/05/08 01:40:27;;;;;;;7.17;4.63;;;;;;;;;;5040232;28;20245;-65
2022/05/08 01:42:53;;;;;;;10.30;4.83;;;;;;;;;;5057811;28;20205;-67
2022/05/08 01:45:19;;;;;;;7.40;4.80;;;;;;;;;;5057304;28;20209;-65
2022/05/08 01:50:29;;;;;;;5.97;5.23;;;;;;;;;;5066718;28;20185;-65
2022/05/08 01:52:55;;;;;;;7.50;5.70;;;;;;;;;;5059860;28;20171;-66
2022/05/08 01:55:21;;;;;;;8.73;6.10;;;;;;;;;;5058763;28;20207;-67
2022/05/08 01:57:47;;;;;;;12.47;5.87;;;;;;;;;;5058394;28;20162;-65
2022/05/08 02:00:14;;;;;;;9.23;6.10;;;;;;;;;;5058092;28;20197;-66
2022/05/08 02:02:40;;;;;;;9.77;6.03;;;;;;;;;;5057985;28;20685;-65
2022/05/08 02:05:07;;;;;;;10.13;6.50;;;;;;;;;;5057982;28;20170;-65
2022/05/08 02:07:32;;;;;;;9.10;5.90;;;;;;;;;;5057922;28;20618;-66
2022/05/08 02:09:58;;;;;;;11.73;6.90;;;;;;;;;;5057815;28;20213;-67
2022/05/08 02:12:24;;;;;;;8.57;5.63;;;;;;;;;;5058415;28;20631;-66
2022/05/08 02:14:50;;;;;;;6.33;4.80;;;;;;;;;;5058742;28;20218;-65
2022/05/08 02:17:17;;;;;;;10.07;6.30;;;;;;;;;;5041572;28;20606;-65
2022/05/08 02:19:43;;;;;;;10.17;5.83;;;;;;;;;;5059488;28;20248;-67
2022/05/08 02:22:09;;;;;;;9.13;6.30;;;;;;;;;;5058970;28;20175;-66
2022/05/08 02:24:35;;;;;;;10.43;6.30;;;;;;;;;;5041314;28;20186;-65
2022/05/08 02:27:01;;;;;;;8.90;6.83;;;;;;;;;;5059820;28;20233;-65
2022/05/08 02:29:28;;;;;;;11.33;7.10;;;;;;;;;;5067661;28;20186;-67
2022/05/08 02:31:54;;;;;;;7.73;6.77;;;;;;;;;;5060963;28;20182;-66
2022/05/08 02:34:20;;;;;;;10.40;7.10;;;;;;;;;;5069990;28;20621;-68
2022/05/08 02:36:46;;;;;;;10.67;7.30;;;;;;;;;;5053218;28;20194;-66
2022/05/08 02:39:12;;;;;;;8.87;7.20;;;;;;;;;;5070507;28;20205;-67
2022/05/08 02:41:38;;;;;;;10.50;7.77;;;;;;;;;;5071296;28;20178;-66
2022/05/08 02:44:05;;;;;;;10.07;6.90;;;;;;;;;;5071934;28;20228;-67
2022/05/08 02:46:31;;;;;;;8.83;7.20;;;;;;;;;;5072122;28;20195;-66
2022/05/08 02:48:57;;;;;;;9.57;7.80;;;;;;;;;;5054908;28;20204;-65
2022/05/08 02:51:23;;;;;;;14.07;8.63;;;;;;;;;;5052064;28;20178;-67
2022/05/08 02:53:49;;;;;;;9.43;8.17;;;;;;;;;;5068662;28;20209;-67
2022/05/08 02:59:00;;;;;;;14.57;9.40;;;;;;;;;;5071931;28;20166;-68
2022/05/08 03:01:25;;;;;;;10.33;9.07;;;;;;;;;;5073004;28;20220;-66
2022/05/08 03:03:51;;;;;;;11.80;8.40;;;;;;;;;;5073795;28;20231;-67
2022/05/08 03:06:17;;;;;;;10.80;9.37;;;;;;;;;;5073694;28;20202;-67
2022/05/08 03:08:43;;;;;;;13.30;9.53;;;;;;;;;;5072566;28;20607;-66
2022/05/08 03:11:29;;;;;;;11.27;8.60;;;;;;;;;;5057214;28;20681;-67
2022/05/08 03:13:55;;;;;;;12.27;9.33;;;;;;;;;;5070656;28;20186;-66
2022/05/08 03:16:22;;;;;;;11.97;9.57;;;;;;;;;;5073548;28;20210;-66
2022/05/08 03:18:49;;;;;;;12.47;9.57;;;;;;;;;;5053778;28;20175;-67
2022/05/08 03:21:15;;;;;;;13.10;9.53;;;;;;;;;;5074123;28;20175;-66
2022/05/08 03:23:41;;;;;;;13.57;9.90;;;;;;;;;;5056048;28;20190;-66
2022/05/08 03:26:08;;;;;;;11.37;9.20;;;;;;;;;;5072455;28;20209;-67
2022/05/08 03:28:34;;;;;;;14.10;9.93;;;;;;;;;;5040120;28;20182;-65
2022/05/08 03:31:00;;;;;;;13.10;10.43;;;;;;;;;;5039450;28;20182;-66
2022/05/08 03:33:27;;;;;;;16.17;10.80;;;;;;;;;;5039663;28;20214;-65
2022/05/08 03:35:53;;;;;;;15.10;9.93;;;;;;;;;;5056167;28;20240;-66
2022/05/08 03:38:19;;;;;;;15.87;11.00;;;;;;;;;;5056608;28;20171;-65
2022/05/08 03:40:45;;;;;;;11.53;9.90;;;;;;;;;;5056406;28;20639;-65
2022/05/08 03:43:11;;;;;;;17.60;10.37;;;;;;;;;;5038655;28;20178;-66
2022/05/08 03:45:37;;;;;;;13.27;9.63;;;;;;;;;;5055399;28;20254;-64
2022/05/08 03:48:03;;;;;;;14.83;9.77;;;;;;;;;;5055952;28;20261;-66
2022/05/08 03:50:30;;;;;;;12.23;9.87;;;;;;;;;;5054886;28;20178;-65
2022/05/08 03:52:56;;;;;;;14.83;9.67;;;;;;;;;;5037211;28;20182;-66
2022/05/08 03:55:22;;;;;;;13.13;10.13;;;;;;;;;;5036511;28;20304;-66
2022/05/08 03:57:48;;;;;;;17.10;10.17;;;;;;;;;;5054709;28;20174;-66
2022/05/08 04:00:15;;;;;;;13.57;10.10;;;;;;;;;;5054778;28;20178;-66
2022/05/08 04:02:41;;;;;;;13.40;9.47;;;;;;;;;;5036283;28;20643;-66
2022/05/08 04:05:08;;;;;;;14.77;11.47;;;;;;;;;;5054516;28;20369;-65
2022/05/08 04:07:34;;;;;;;15.30;10.53;;;;;;;;;;5054567;28;20181;-66
2022/05/08 04:10:00;;;;;;;14.97;10.70;;;;;;;;;;5054219;28;20210;-65
2022/05/08 04:12:26;;;;;;;13.17;10.27;;;;;;;;;;5053772;28;20296;-65
2022/05/08 04:14:53;;;;;;;15.67;10.23;;;;;;;;;;5053843;28;20210;-64
2022/05/08 04:17:19;;;;;;;17.23;9.70;;;;;;;;;;5054026;28;20187;-64
2022/05/08 04:19:48;;;;;;;14.13;9.00;;;;;;;;;;5053479;28;20181;-65
2022/05/08 04:25:00;;;;;;;14.57;8.83;;;;;;;;;;5053895;28;20577;-67
2022/05/08 04:27:26;;;;;;;12.60;7.97;;;;;;;;;;5035324;28;20193;-65
2022/05/08 04:32:26;;;;;;;9.67;7.30;;;;;;;;;;5051976;28;20305;-65
2022/05/08 04:34:52;;;;;;;12.80;8.07;;;;;;;;;;5035268;28;20296;-67
2022/05/08 04:37:17;;;;;;;11.17;8.27;;;;;;;;;;5035363;28;20186;-67
2022/05/08 04:39:43;;;;;;;11.03;8.43;;;;;;;;;;5053479;28;20200;-67
2022/05/08 04:42:09;;;;;;;11.33;7.60;;;;;;;;;;5053004;28;20272;-67
2022/05/08 04:44:35;;;;;;;12.13;8.30;;;;;;;;;;5053233;28;20635;-66
2022/05/08 04:47:01;;;;;;;12.47;8.73;;;;;;;;;;5053430;28;20185;-67
2022/05/08 04:49:29;;;;;;;12.70;8.03;;;;;;;;;;5053187;28;20270;-67
2022/05/08 04:51:55;;;;;;;10.67;8.37;;;;;;;;;;5035079;28;20210;-67
2022/05/08 04:54:22;;;;;;;11.10;7.33;;;;;;;;;;5052973;28;20222;-67
2022/05/08 04:56:49;;;;;;;10.50;7.57;;;;;;;;;;5035152;28;20204;-68
2022/05/08 04:59:15;;;;;;;11.87;7.80;;;;;;;;;;5034985;28;20187;-67
2022/05/08 05:01:41;;;;;;;9.63;7.20;;;;;;;;;;5053117;28;20199;-66
2022/05/08 05:04:07;;;;;;;11.07;7.77;;;;;;;;;;5053126;28;20643;-65
2022/05/08 05:06:33;;;;;;;12.10;7.87;;;;;;;;;;5035144;28;20187;-67
2022/05/08 05:08:59;;;;;;;10.03;7.07;;;;;;;;;;5035026;28;20182;-67
2022/05/08 05:11:25;;;;;;;11.90;7.17;;;;;;;;;;5035279;28;20213;-67
2022/05/08 05:13:51;;;;;;;11.17;7.00;;;;;;;;;;5055451;28;20202;-67
2022/05/08 05:16:17;;;;;;;12.83;8.17;;;;;;;;;;5056839;28;20285;-67
2022/05/08 05:18:43;;;;;;;19.47;7.20;;;;;;;;;;5056651;28;20182;-67
2022/05/08 05:21:09;;;;;;;10.93;7.30;;;;;;;;;;5056391;28;20670;-67
2022/05/08 05:23:35;;;;;;;10.47;6.83;;;;;;;;;;5038777;28;20182;-67
2022/05/08 05:26:02;;;;;;;13.03;7.00;;;;;;;;;;5038604;28;20179;-67
2022/05/08 05:28:29;;;;;;;11.00;6.83;;;;;;;;;;5038850;28;20194;-67
2022/05/08 05:30:55;;;;;;;15.17;7.33;;;;;;;;;;5038095;28;20217;-67
2022/05/08 05:33:21;;;;;;;12.03;5.97;;;;;;;;;;5038043;28;20360;-66
2022/05/08 05:35:47;;;;;;;13.63;6.17;;;;;;;;;;5055924;28;20178;-66
2022/05/08 05:38:13;;;;;;;15.47;6.67;;;;;;;;;;5056155;28;20171;-66
2022/05/08 05:40:39;;;;;;;18.13;6.40;;;;;;;;;;5056453;28;20251;-65
2022/05/08 05:43:05;;;;;;;11.03;6.20;;;;;;;;;;5056341;28;20179;-66
2022/05/08 05:45:31;;;;;;;13.57;6.67;;;;;;;;;;5038597;28;20197;-66
2022/05/08 05:47:59;;;;;;;13.07;6.60;;;;;;;;;;5056499;28;20182;-65
2022/05/08 05:50:26;;;;;;;11.17;6.10;;;;;;;;;;5056409;28;20195;-66
2022/05/08 05:52:52;;;;;;;11.13;6.13;;;;;;;;;;5056440;28;20179;-66
2022/05/08 05:55:18;;;;;;;14.10;6.27;;;;;;;;;;5056156;28;20206;-65
2022/05/08 05:57:45;;;;;;;8.37;5.67;;;;;;;;;;5055706;28;20181;-65
2022/05/08 06:00:12;;;;;;;12.67;6.53;;;;;;;;;;5037729;28;20202;-66
2022/05/08 06:02:40;;;;;;;10.67;6.10;;;;;;;;;;5055622;28;20174;-66
2022/05/08 06:05:06;;;;;;;14.60;7.13;;;;;;;;;;5056723;28;20175;-65
2022/05/08 06:07:33;;;;;;;13.10;7.03;;;;;;;;;;5038066;28;20666;-66
2022/05/08 06:09:59;;;;;;;14.90;6.17;;;;;;;;;;5037787;28;20702;-65
2022/05/08 06:12:25;;;;;;;10.47;6.33;;;;;;;;;;5055974;28;20548;-65
2022/05/08 06:14:51;;;;;;;15.63;6.47;;;;;;;;;;5055916;28;20781;-66
2022/05/08 06:17:17;;;;;;;20.63;7.47;;;;;;;;;;5056346;28;20187;-66
2022/05/08 06:19:43;;;;;;;15.30;6.90;;;;;;;;;;5055908;28;20205;-66
2022/05/08 06:22:09;;;;;;;13.53;6.77;;;;;;;;;;5055497;28;20324;-66
2022/05/08 06:24:36;;;;;;;11.60;6.23;;;;;;;;;;5037199;28;20281;-66
2022/05/08 06:27:02;;;;;;;16.13;6.20;;;;;;;;;;5037701;28;20185;-66
2022/05/08 06:29:28;;;;;;;11.17;6.10;;;;;;;;;;5055792;28;20185;-66
2022/05/08 06:31:54;;;;;;;13.87;6.20;;;;;;;;;;5055213;28;20218;-67
2022/05/08 06:34:20;;;;;;;13.77;6.63;;;;;;;;;;5037105;28;20198;-67
2022/05/08 06:36:46;;;;;;;8.23;5.17;;;;;;;;;;5037079;28;20205;-66
2022/05/08 06:39:15;;;;;;;14.07;5.40;;;;;;;;;;5055670;28;20171;-67
2022/05/08 06:41:42;;;;;;;11.53;5.23;;;;;;;;;;5055247;28;20198;-66
2022/05/08 06:44:08;;;;;;;9.33;5.37;;;;;;;;;;5055192;28;20232;-67
2022/05/08 06:46:36;;;;;;;12.53;5.60;;;;;;;;;;5054880;28;20185;-67
2022/05/08 06:49:02;;;;;;;13.17;5.57;;;;;;;;;;5036702;28;20273;-66
2022/05/08 06:51:29;;;;;;;12.40;5.20;;;;;;;;;;5054486;28;20201;-66
2022/05/08 06:53:55;;;;;;;8.70;4.20;;;;;;;;;;5054417;28;20210;-66
2022/05/08 06:56:21;;;;;;;11.07;4.43;;;;;;;;;;5055278;28;20213;-67
2022/05/08 07:01:34;;;;;;;7.97;4.40;;;;;;;;;;5054892;28;20208;-66
2022/05/08 07:04:00;;;;;;;9.13;3.80;;;;;;;;;;5036834;28;20186;-66
2022/05/08 07:06:26;;;;;;;13.00;4.53;;;;;;;;;;5055237;28;20175;-67
2022/05/08 07:08:52;;;;;;;11.93;4.17;;;;;;;;;;5037318;28;20647;-67
2022/05/08 07:11:18;;;;;;;11.53;4.60;;;;;;;;;;5054792;28;20194;-66
2022/05/08 07:13:44;;;;;;;8.53;4.17;;;;;;;;;;5054166;28;20238;-66
2022/05/08 07:16:10;;;;;;;8.53;3.97;;;;;;;;;;5054897;28;20183;-67
2022/05/08 07:18:36;;;;;;;7.50;3.83;;;;;;;;;;5054180;28;20178;-66
2022/05/08 07:21:02;;;;;;;9.37;3.83;;;;;;;;;;5054232;28;20201;-66
2022/05/08 07:23:28;;;;;;;15.67;3.80;;;;;;;;;;5054017;28;20207;-66
2022/05/08 07:25:54;;;;;;;12.70;4.57;;;;;;;;;;5054281;28;20571;-66
2022/05/08 07:28:20;;;;;;;11.37;4.03;;;;;;;;;;5036485;28;20183;-66
2022/05/08 07:30:46;;;;;;;13.20;3.73;;;;;;;;;;5036303;28;20218;-66
2022/05/08 07:33:16;;;;;;;7.20;3.63;;;;;;;;;;5054591;28;20630;-67
2022/05/08 07:38:26;;;;;;;11.20;4.33;;;;;;;;;;5053834;28;20165;-66
2022/05/08 07:40:52;;;;;;;13.67;4.63;;;;;;;;;;5035814;28;20198;-66
2022/05/08 07:43:18;;;;;;;8.27;4.13;;;;;;;;;;5053948;28;20182;-66
2022/05/08 07:45:44;;;;;;;10.00;4.50;;;;;;;;;;5053553;28;20175;-67
2022/05/08 07:48:10;;;;;;;12.73;4.80;;;;;;;;;;5054019;28;20178;-67
2022/05/08 07:50:36;;;;;;;12.57;4.60;;;;;;;;;;5035697;28;20202;-66
2022/05/08 07:53:02;;;;;;;13.97;5.13;;;;;;;;;;5035628;28;20237;-67
2022/05/08 07:55:28;;;;;;;6.40;5.15;;;;;;;;;;5035636;28;20210;-66
2022/05/08 07:57:54;;;;;;;7.97;4.23;;;;;;;;;;5053738;28;20257;-67
2022/05/08 08:00:20;;;;;;;10.70;3.37;;;;;;;;;;5035555;28;20736;-66
2022/05/08 08:02:46;;;;;;;11.73;4.70;;;;;;;;;;5053909;28;20178;-66
2022/05/08 08:05:12;;;;;;;12.70;5.03;;;;;;;;;;5053438;28;20179;-66
2022/05/08 08:07:39;;;;;;;10.17;4.20;;;;;;;;;;5035444;28;20662;-66
2022/05/08 08:10:05;;;;;;;7.33;3.57;;;;;;;;;;5053215;28;20642;-66
2022/05/08 08:12:31;;;;;;;10.93;4.73;;;;;;;;;;5053246;28;20197;-67
2022/05/08 08:14:59;;;;;;;11.43;3.67;;;;;;;;;;5053411;28;20598;-66
2022/05/08 08:17:25;;;;;;;8.93;3.83;;;;;;;;;;5053530;28;20623;-67
2022/05/08 08:19:51;;;;;;;10.77;3.43;;;;;;;;;;5035425;28;20190;-67
2022/05/08 08:22:17;;;;;;;8.40;3.37;;;;;;;;;;5035307;28;20233;-66
2022/05/08 08:24:44;;;;;;;7.67;3.03;;;;;;;;;;5053382;28;20616;-67
2022/05/08 08:27:10;;;;;;;8.50;3.50;;;;;;;;;;5053644;28;20552;-67
2022/05/08 08:29:36;;;;;;;9.23;3.53;;;;;;;;;;5053672;28;20178;-66
2022/05/08 08:32:02;;;;;;;7.30;3.30;;;;;;;;;;5035120;28;20214;-66
2022/05/08 08:34:28;;;;;;;9.60;3.20;;;;;;;;;;5052990;28;20206;-67
2022/05/08 08:36:54;;;;;;;9.10;3.00;;;;;;;;;;5052892;28;20178;-67
2022/05/08 08:39:20;;;;;;;9.57;3.40;;;;;;;;;;5035031;28;20186;-67
2022/05/08 08:42:03;;;;;;;9.73;3.53;;;;;;;;;;5052934;28;20190;-67
2022/05/08 08:50:03;;;;;;;8.00;3.00;;;;;;;;;;5056843;28;20178;-67
2022/05/08 08:52:29;;;;;;;5.80;3.37;;;;;;;;;;5038696;28;20183;-67
2022/05/08 08:54:55;;;;;;;8.73;3.23;;;;;;;;;;5038640;28;20205;-67
2022/05/08 08:57:21;;;;;;;10.47;3.40;;;;;;;;;;5056477;28;20188;-67
2022/05/08 08:59:47;;;;;;;7.23;3.37;;;;;;;;;;5057120;28;20541;-68
2022/05/08 09:02:14;;;;;;;7.80;3.33;;;;;;;;;;5056475;28;20569;-67
2022/05/08 09:04:41;;;;;;;8.20;3.07;;;;;;;;;;5056417;28;20185;-67
2022/05/08 09:07:26;;;;;;;8.20;3.10;;;;;;;;;;5056522;28;20576;-67
2022/05/08 09:10:05;;;;;;;7.67;2.80;;;;;;;;;;5038426;28;20182;-66
2022/05/08 09:12:31;;;;;;;7.10;2.87;;;;;;;;;;5040065;28;20193;-67
2022/05/08 09:14:57;;;;;;;10.30;2.83;;;;;;;;;;5038391;28;20229;-67
2022/05/08 09:17:23;;;;;;;11.70;3.20;;;;;;;;;;5056460;28;20248;-67
2022/05/08 09:19:49;;;;;;;4.40;2.33;;;;;;;;;;5056169;28;20596;-67
2022/05/08 09:22:18;;;;;;;7.53;3.03;;;;;;;;;;5038190;28;20613;-67
2022/05/08 09:24:54;;;;;;;8.70;3.10;;;;;;;;;;5056477;28;20174;-67
2022/05/08 09:27:20;;;;;;;5.77;2.33;;;;;;;;;;5056326;28;20170;-67
2022/05/08 09:29:47;;;;;;;8.77;2.53;;;;;;;;;;5056057;28;20179;-68
2022/05/08 09:32:35;;;;;;;8.17;2.90;;;;;;;;;;5055896;28;20566;-68
2022/05/08 09:35:01;;;;;;;6.90;2.50;;;;;;;;;;5038047;28;20202;-67
2022/05/08 09:37:28;;;;;;;5.90;2.60;;;;;;;;;;5037969;28;20666;-67
2022/05/08 09:40:13;;;;;;;6.67;3.23;;;;;;;;;;5037944;28;20590;-66
2022/05/08 09:42:39;;;;;;;5.60;2.60;;;;;;;;;;5038379;28;20651;-67
2022/05/08 09:45:10;;;;;;;5.50;2.50;;;;;;;;;;5037912;28;20205;-67
2022/05/08 09:47:49;;;;;;;7.77;2.87;;;;;;;;;;5056040;28;20158;-67
2022/05/08 09:50:16;;;;;;;6.60;2.57;;;;;;;;;;5055886;28;20197;-67
2022/05/08 09:52:43;;;;;;;10.17;2.87;;;;;;;;;;5055582;28;20178;-67
2022/05/08 09:55:10;;;;;;;8.63;2.50;;;;;;;;;;5055482;28;20206;-67
2022/05/08 09:57:36;;;;;;;5.97;2.83;;;;;;;;;;5037580;28;20174;-67
2022/05/08 10:00:06;;;;;;;5.40;2.40;;;;;;;;;;5054525;28;20228;-67
2022/05/08 10:02:32;;;;;;;9.13;3.07;;;;;;;;;;5055300;28;20175;-67
2022/05/08 10:04:58;;;;;;;9.30;3.10;;;;;;;;;;5055386;28;20548;-67
2022/05/08 10:07:24;;;;;;;3.73;2.30;;;;;;;;;;5055156;28;20174;-67
2022/05/08 10:15:33;;;;;;;4.73;2.43;;;;;;;;;;5055601;28;20259;-67
2022/05/08 10:18:18;;;;;;;4.93;2.23;;;;;;;;;;5056048;28;20548;-67
2022/05/08 10:20:59;;;;;;;5.00;2.23;;;;;;;;;;5055183;28;20202;-67
2022/05/08 10:23:37;;;;;;;5.83;2.33;;;;;;;;;;5055029;28;20626;-67
2022/05/08 10:26:14;;;;;;;6.13;2.37;;;;;;;;;;5055164;28;20231;-67
2022/05/08 10:28:59;;;;;;;7.70;3.40;;;;;;;;;;5054975;28;20170;-67
2022/05/08 10:31:43;;;;;;;8.97;3.30;;;;;;;;;;5056154;28;20241;-67
2022/05/08 10:34:12;;;;;;;7.67;2.83;;;;;;;;;;5038215;28;20233;-66
2022/05/08 10:36:40;;;;;;;5.57;2.60;;;;;;;;;;5056381;28;20213;-66
2022/05/08 10:39:24;;;;;;;7.53;2.80;;;;;;;;;;5038438;28;20205;-66
2022/05/08 10:41:53;;;;;;;9.33;3.50;;;;;;;;;;5054918;28;20252;-66
2022/05/08 10:44:35;;;;;;;8.97;3.10;;;;;;;;;;5055445;28;20262;-66
2022/05/08 10:47:20;;;;;;;9.77;3.03;;;;;;;;;;5036884;28;20190;-66
2022/05/08 10:49:46;;;;;;;5.63;2.67;;;;;;;;;;5036699;28;20240;-67
2022/05/08 10:52:12;;;;;;;9.50;2.50;;;;;;;;;;5036692;28;20205;-66
2022/05/08 10:54:54;;;;;;;8.00;3.30;;;;;;;;;;5054940;28;20241;-66
2022/05/08 10:57:28;;;;;;;10.90;3.10;;;;;;;;;;5081039;22;20230;-66
2022/05/08 10:59:54;;;;;;;5.30;2.53;;;;;;;;;;5055176;28;20163;-66
2022/05/08 11:02:38;;;;;;;5.93;2.70;;;;;;;;;;5054625;28;20603;-66
2022/05/08 11:05:05;;;;;;;6.17;2.70;;;;;;;;;;5037346;28;20170;-66
2022/05/08 11:07:31;;;;;;;4.57;2.60;;;;;;;;;;5054171;28;20198;-66
2022/05/08 11:09:56;;;;;;;3.03;2.40;;;;;;;;;;5054548;28;20710;-66
2022/05/08 11:12:23;;;;;;;6.93;2.20;;;;;;;;;;5054610;28;20653;-66
2022/05/08 11:14:49;;;;;;;5.23;2.60;;;;;;;;;;5054319;28;20198;-66
2022/05/08 11:17:15;;;;;;;4.83;2.60;;;;;;;;;;5054182;28;20198;-66
2022/05/08 11:19:57;;;;;;;7.90;3.13;;;;;;;;;;5054138;28;20651;-65
2022/05/08 11:22:23;;;;;;;6.10;3.43;;;;;;;;;;5036018;28;20312;-66
2022/05/08 11:24:49;;;;;;;9.03;2.80;;;;;;;;;;5054429;28;20243;-64
2022/05/08 11:27:15;;;;;;;3.87;2.53;;;;;;;;;;5053978;28;20201;-64
2022/05/08 11:29:48;;;;;;;7.40;3.10;;;;;;;;;;5054106;28;20182;-65
2022/05/08 11:38:02;;;;;;;7.57;2.70;;;;;;;;;;5054056;28;20209;-68
2022/05/08 11:40:28;;;;;;;10.83;2.60;;;;;;;;;;5053900;28;20642;-64
2022/05/08 11:42:54;;;;;;;7.37;2.70;;;;;;;;;;5036776;28;20175;-65
2022/05/08 11:45:20;;;;;;;4.77;2.70;;;;;;;;;;5036284;28;20179;-64
2022/05/08 11:47:50;;;;;;;7.13;2.40;;;;;;;;;;5054099;28;20198;-64
2022/05/08 11:50:16;;;;;;;5.63;2.73;;;;;;;;;;5053927;28;20186;-64
2022/05/08 11:52:42;;;;;;;4.93;2.60;;;;;;;;;;5054446;28;20673;-66
2022/05/08 11:55:08;;;;;;;5.90;2.60;;;;;;;;;;5055007;28;20194;-66
2022/05/08 11:57:41;;;;;;;3.37;2.20;;;;;;;;;;5053923;28;20237;-66
2022/05/08 12:00:10;;;;;;;4.90;2.30;;;;;;;;;;5053713;28;20177;-66
2022/05/08 12:02:40;;;;;;;3.60;2.50;;;;;;;;;;5053500;28;20170;-66
2022/05/08 12:05:06;;;;;;;6.97;2.37;;;;;;;;;;5035538;28;20189;-66
2022/05/08 12:07:39;;;;;;;4.30;2.00;;;;;;;;;;5035309;28;20748;-66
2022/05/08 12:10:05;;;;;;;7.83;2.70;;;;;;;;;;5035599;28;20189;-66
2022/05/08 12:12:35;;;;;;;6.10;2.60;;;;;;;;;;5053309;28;20174;-66
2022/05/08 12:15:08;;;;;;;6.77;2.03;;;;;;;;;;5035680;28;20210;-66
2022/05/08 12:17:40;;;;;;;5.70;2.10;;;;;;;;;;5053392;28;20269;-66
2022/05/08 12:20:09;;;;;;;3.73;2.30;;;;;;;;;;5053495;28;20178;-66
2022/05/08 12:22:36;;;;;;;4.17;2.07;;;;;;;;;;5037294;28;20183;-66
2022/05/08 12:25:02;;;;;;;5.20;2.20;;;;;;;;;;5059785;28;20212;-66
2022/05/08 12:27:29;;;;;;;4.37;2.00;;;;;;;;;;5060112;28;20591;-66
2022/05/08 12:29:55;;;;;;;5.90;2.00;;;;;;;;;;5060061;28;20179;-66
2022/05/08 12:32:22;;;;;;;4.17;2.43;;;;;;;;;;5059851;28;20182;-66
2022/05/08 12:34:48;;;;;;;3.07;1.73;;;;;;;;;;5059879;28;20205;-66
2022/05/08 12:37:16;;;;;;;6.73;2.53;;;;;;;;;;5041939;28;20201;-68
2022/05/08 12:39:42;;;;;;;5.83;2.30;;;;;;;;;;5042032;28;20231;-66
2022/05/08 12:42:09;;;;;;;4.87;1.97;;;;;;;;;;5059896;28;20170;-67
2022/05/08 12:44:36;;;;;;;4.73;1.97;;;;;;;;;;5059885;28;20582;-67
2022/05/08 12:47:03;;;;;;;4.87;2.53;;;;;;;;;;5060226;28;20635;-64
2022/05/08 12:49:29;;;;;;;4.60;2.27;;;;;;;;;;5060087;28;20183;-65
2022/05/08 12:51:55;;;;;;;4.10;2.03;;;;;;;;;;5060190;28;20204;-65
2022/05/08 12:54:21;;;;;;;4.07;2.07;;;;;;;;;;5060290;28;20198;-68
2022/05/08 12:56:47;;;;;;;2.03;1.70;;;;;;;;;;5060664;28;20639;-67
2022/05/08 13:01:58;;;;;;;4.90;1.90;;;;;;;;;;5060335;28;20539;-66
2022/05/08 13:04:24;;;;;;;6.63;2.47;;;;;;;;;;5059988;28;20183;-66
2022/05/08 13:06:50;;;;;;;5.90;2.57;;;;;;;;;;5042039;28;20255;-67
2022/05/08 13:09:17;;;;;;;3.20;2.13;;;;;;;;;;5041851;28;20190;-66
2022/05/08 13:11:43;;;;;;;3.93;1.87;;;;;;;;;;5059588;28;20650;-67
2022/05/08 13:14:09;;;;;;;2.80;1.70;;;;;;;;;;5041475;28;20198;-73
2022/05/08 13:16:35;;;;;;;7.07;2.00;;;;;;;;;;5041587;28;20202;-66
2022/05/08 13:19:02;;;;;;;6.77;2.53;;;;;;;;;;5041561;28;20599;-66
2022/05/08 13:21:28;;;;;;;4.10;2.27;;;;;;;;;;5059557;28;20642;-67
2022/05/08 13:23:54;;;;;;;6.20;2.37;;;;;;;;;;5041495;28;20193;-67
2022/05/08 13:26:20;;;;;;;5.07;2.30;;;;;;;;;;5059341;28;20204;-66
2022/05/08 13:28:46;;;;;;;3.30;2.03;;;;;;;;;;5041425;28;20265;-66
2022/05/08 13:31:13;;;;;;;6.43;2.43;;;;;;;;;;5059903;28;20179;-67
2022/05/08 13:33:39;;;;;;;7.17;2.20;;;;;;;;;;5058702;28;20179;-66
2022/05/08 13:36:05;;;;;;;8.87;2.67;;;;;;;;;;5056050;28;20182;-66
2022/05/08 13:38:31;;;;;;;2.93;2.00;;;;;;;;;;5055982;28;20178;-66
2022/05/08 13:40:59;;;;;;;5.20;2.50;;;;;;;;;;5056064;28;20258;-66
2022/05/08 13:43:25;;;;;;;5.07;2.77;;;;;;;;;;5056161;28;20240;-67
2022/05/08 13:45:51;;;;;;;3.10;2.20;;;;;;;;;;5038051;28;20182;-66
2022/05/08 13:48:17;;;;;;;7.90;2.70;;;;;;;;;;5055953;28;20101;-67
2022/05/08 13:50:44;;;;;;;7.30;2.33;;;;;;;;;;5038099;28;20189;-66
2022/05/08 13:53:10;;;;;;;5.00;2.17;;;;;;;;;;5037931;28;20175;-66
2022/05/08 13:55:39;;;;;;;3.83;1.90;;;;;;;;;;5056132;28;20225;-66
2022/05/08 13:58:09;;;;;;;5.83;2.00;;;;;;;;;;5055845;28;20678;-66
2022/05/08 14:00:36;;;;;;;3.90;2.40;;;;;;;;;;5037893;28;20260;-66
2022/05/08 14:03:02;;;;;;;4.47;2.30;;;;;;;;;;5038569;28;20760;-66
2022/05/08 14:05:29;;;;;;;3.10;1.80;;;;;;;;;;5037862;28;20186;-68
2022/05/08 14:07:55;;;;;;;4.90;2.67;;;;;;;;;;5055922;28;20658;-67
2022/05/08 14:10:21;;;;;;;3.77;2.30;;;;;;;;;;5056341;28;20183;-69
2022/05/08 14:12:48;;;;;;;3.27;2.50;;;;;;;;;;5055999;28;20185;-68
2022/05/08 14:15:14;;;;;;;3.07;1.73;;;;;;;;;;5056011;28;20274;-68
2022/05/08 14:17:40;;;;;;;6.40;2.00;;;;;;;;;;5057293;28;20195;-65
2022/05/08 14:20:10;;;;;;;3.80;2.00;;;;;;;;;;5057240;28;20661;-67
2022/05/08 14:22:36;;;;;;;3.73;2.00;;;;;;;;;;5055622;28;20556;-67
2022/05/08 14:25:03;;;;;;;2.97;1.83;;;;;;;;;;5055601;28;20178;-67
2022/05/08 14:27:29;;;;;;;3.13;1.80;;;;;;;;;;5055514;28;20239;-66
2022/05/08 14:29:58;;;;;;;4.80;2.10;;;;;;;;;;5055357;28;20638;-67
2022/05/08 14:37:53;;;;;;;2.90;1.93;;;;;;;;;;5055627;28;20245;-67
2022/05/08 14:40:20;;;;;;;3.33;2.17;;;;;;;;;;5055781;28;20537;-67
2022/05/08 14:42:46;;;;;;;2.77;1.80;;;;;;;;;;5037138;28;20182;-66
2022/05/08 14:45:12;;;;;;;4.03;1.90;;;;;;;;;;5054640;28;20276;-67
2022/05/08 14:47:39;;;;;;;1.77;1.50;;;;;;;;;;5054844;28;20655;-66
2022/05/08 14:50:05;;;;;;;2.20;1.80;;;;;;;;;;5037729;28;20532;-67
2022/05/08 14:52:31;;;;;;;2.67;1.87;;;;;;;;;;5054898;28;20178;-67
2022/05/08 14:54:57;;;;;;;2.33;1.70;;;;;;;;;;5054855;28;20202;-66
2022/05/08 14:57:23;;;;;;;2.03;1.73;;;;;;;;;;5036421;28;20206;-67
2022/05/08 14:59:49;;;;;;;3.83;1.70;;;;;;;;;;5036801;28;20244;-67
2022/05/08 15:02:15;;;;;;;5.37;2.03;;;;;;;;;;5036707;28;20188;-68
2022/05/08 15:04:41;;;;;;;3.80;2.00;;;;;;;;;;5054616;28;20638;-66
2022/05/08 15:07:07;;;;;;;3.17;2.00;;;;;;;;;;5054792;28;20731;-67
2022/05/08 15:09:33;;;;;;;4.03;1.80;;;;;;;;;;5054756;28;20205;-66
2022/05/08 15:11:59;;;;;;;1.80;1.50;;;;;;;;;;5037443;28;20185;-67
2022/05/08 15:14:25;;;;;;;4.57;2.07;;;;;;;;;;5036415;28;20240;-66
2022/05/08 15:16:51;;;;;;;2.67;1.97;;;;;;;;;;5054247;28;20198;-68
2022/05/08 15:19:17;;;;;;;2.83;1.57;;;;;;;;;;5054652;28;20225;-66